• Join FlightAware (Why Join?)
  • Login
  • US Flag 
12:26PM EDT


 

Airport Tracker/Info


-or-


 

Live Flight TrackerFlight Track Log ✈ RAX1022 ✈ 09-May-2013 ✈ KIND - KEVV

Flight Track Log - Related Links

Times and Time Zones

All times are in EDT time to prevent confusion due to time zone crossing. See the RAX1022 flight status page for this flight to view local times or setup timezone preferences in your user account.

Time Position Orientation Groundspeed Altitude Reporting Facility
EDT Latitude Longitude Course Direction KTS MPH feet Rate Location/Type
03:50AM 39.7167 -86.3167 201° Southwest 113 130 1,200  Level Indianapolis TRACON
03:51AM 39.6833 -86.3333 201° Southwest 115 132 2,400 1,020 Climbing Indianapolis TRACON
03:52AM 39.6500 -86.3500 201° Southwest 119 137 3,400 900 Climbing Indianapolis TRACON
03:53AM 39.6167 -86.3667 201° Southwest 125 144 4,300 960 Climbing Indianapolis TRACON
03:54AM 39.6108 -86.3831 245° Southwest 119 137 4,800 960 Climbing Indianapolis Center
03:55AM 39.5811 -86.4039 208° Southwest 122 140 5,700 600 Climbing Indianapolis Center
03:56AM 39.5492 -86.4306 213° Southwest 130 150 6,000 120 Climbing Indianapolis Center
03:57AM 39.5072 -86.4644 212° Southwest 166 191 6,000  Level Indianapolis Center
03:58AM 39.4653 -86.4964 210° Southwest 174 200 6,000 -60 Level Indianapolis Center
03:59AM 39.4242 -86.5344 216° Southwest 180 207 5,900 -60 Descending Indianapolis Center
04:00AM 39.3844 -86.5733 217° Southwest 180 207 5,900  Level Indianapolis Center
04:01AM 39.3400 -86.6044 208° Southwest 182 209 5,900  Level Indianapolis Center
04:02AM 39.2953 -86.6331 206° Southwest 180 207 5,900  Level Indianapolis Center
04:03AM 39.2517 -86.6633 208° Southwest 180 207 5,900  Level Indianapolis Center
04:04AM 39.2081 -86.6939 208° Southwest 178 205 5,900  Level Indianapolis Center
04:05AM 39.1631 -86.7231 207° Southwest 179 206 5,900  Level Indianapolis Center
04:06AM 39.1144 -86.7569 208° Southwest 180 207 5,900  Level Indianapolis Center
04:07AM 39.0706 -86.7883 209° Southwest 179 206 5,900  Level Indianapolis Center
04:08AM 39.0264 -86.8186 208° Southwest 180 207 5,900  Level Indianapolis Center
04:09AM 38.9828 -86.8503 209° Southwest 180 207 5,900  Level Indianapolis Center
04:10AM 38.9389 -86.8811 209° Southwest 179 206 5,900  Level Indianapolis Center
04:11AM 38.8956 -86.9122 209° Southwest 179 206 5,900  Level Indianapolis Center
04:12AM 38.8525 -86.9447 210° Southwest 179 206 6,000  Climbing Indianapolis Center
04:13AM 38.8089 -86.9764 210° Southwest 179 206 6,000  Level Indianapolis Center
04:14AM 38.7653 -87.0083 210° Southwest 180 207 6,000  Level Indianapolis Center
04:15AM 38.7214 -87.0403 210° Southwest 181 208 6,000  Level Indianapolis Center
04:16AM 38.6778 -87.0719 210° Southwest 180 207 6,000  Level Indianapolis Center
04:17AM 38.6333 -87.1033 209° Southwest 181 208 6,000  Level Indianapolis Center
04:18AM 38.5906 -87.1344 210° Southwest 178 205 6,000  Level Indianapolis Center
04:19AM 38.5469 -87.1658 209° Southwest 179 206 6,000  Level Indianapolis Center
04:20AM 38.5042 -87.1972 210° Southwest 178 205 6,000 -120 Level Indianapolis Center
04:21AM 38.4606 -87.2286 209° Southwest 180 207 5,800 -300 Descending Indianapolis Center
04:22AM 38.4164 -87.2644 212° Southwest 186 214 5,400 -540 Descending Indianapolis Center
04:23AM 38.3697 -87.2997 211° Southwest 193 222 4,800 -720 Descending Indianapolis Center
04:24AM 38.3231 -87.3350 211° Southwest 195 224 4,000 -720 Descending Indianapolis Center
04:25AM 38.2769 -87.3633 206° Southwest 191 220 3,400 -540 Descending Indianapolis Center
04:26AM 38.2331 -87.3900 206° Southwest 183 211 3,000 -420 Descending Indianapolis Center
04:27AM 38.1900 -87.4150 205° Southwest 176 203 2,600 -420 Descending Indianapolis Center